sensor_id;sensor_type;location;lat;lon;timestamp;P1;durP1;ratioP1;P2;durP2;ratioP2
68310;SDS011;55157;51.036;17.058;2023-08-24T00:01:24;13.65;;;3.65;;
68310;SDS011;55157;51.036;17.058;2023-08-24T00:03:51;15.10;;;4.15;;
68310;SDS011;55157;51.036;17.058;2023-08-24T00:06:16;7.15;;;3.33;;
68310;SDS011;55157;51.036;17.058;2023-08-24T00:08:42;9.57;;;3.53;;
68310;SDS011;55157;51.036;17.058;2023-08-24T00:11:07;13.23;;;3.50;;
68310;SDS011;55157;51.036;17.058;2023-08-24T00:13:32;6.82;;;3.50;;
68310;SDS011;55157;51.036;17.058;2023-08-24T00:15:57;14.30;;;4.05;;
68310;SDS011;55157;51.036;17.058;2023-08-24T00:18:23;5.40;;;3.53;;
68310;SDS011;55157;51.036;17.058;2023-08-24T00:20:50;7.32;;;3.33;;
68310;SDS011;55157;51.036;17.058;2023-08-24T00:23:16;8.50;;;3.60;;
68310;SDS011;55157;51.036;17.058;2023-08-24T00:25:44;13.07;;;3.90;;
68310;SDS011;55157;51.036;17.058;2023-08-24T00:28:09;16.15;;;4.70;;
68310;SDS011;55157;51.036;17.058;2023-08-24T00:30:34;9.75;;;4.30;;
68310;SDS011;55157;51.036;17.058;2023-08-24T00:33:00;9.52;;;3.90;;
68310;SDS011;55157;51.036;17.058;2023-08-24T00:35:25;9.70;;;4.13;;
68310;SDS011;55157;51.036;17.058;2023-08-24T00:37:52;6.35;;;3.42;;
68310;SDS011;55157;51.036;17.058;2023-08-24T00:40:17;11.30;;;4.20;;
68310;SDS011;55157;51.036;17.058;2023-08-24T00:42:43;12.45;;;4.00;;
68310;SDS011;55157;51.036;17.058;2023-08-24T00:45:09;8.95;;;3.80;;
68310;SDS011;55157;51.036;17.058;2023-08-24T00:47:35;14.18;;;4.03;;
68310;SDS011;55157;51.036;17.058;2023-08-24T00:50:01;10.15;;;3.90;;
68310;SDS011;55157;51.036;17.058;2023-08-24T00:52:26;7.22;;;3.55;;
68310;SDS011;55157;51.036;17.058;2023-08-24T00:54:55;6.72;;;3.58;;
68310;SDS011;55157;51.036;17.058;2023-08-24T00:57:20;6.72;;;3.72;;
68310;SDS011;55157;51.036;17.058;2023-08-24T00:59:45;8.35;;;3.60;;
68310;SDS011;55157;51.036;17.058;2023-08-24T01:02:11;8.65;;;4.13;;
68310;SDS011;55157;51.036;17.058;2023-08-24T01:04:36;7.18;;;3.63;;
68310;SDS011;55157;51.036;17.058;2023-08-24T01:07:01;15.40;;;3.65;;
68310;SDS011;55157;51.036;17.058;2023-08-24T01:09:26;11.25;;;3.17;;
68310;SDS011;55157;51.036;17.058;2023-08-24T01:11:57;10.95;;;3.65;;
68310;SDS011;55157;51.036;17.058;2023-08-24T01:14:23;4.85;;;3.25;;
68310;SDS011;55157;51.036;17.058;2023-08-24T01:16:54;6.88;;;3.50;;
68310;SDS011;55157;51.036;17.058;2023-08-24T01:19:26;9.40;;;3.75;;
68310;SDS011;55157;51.036;17.058;2023-08-24T01:21:55;4.93;;;3.13;;
68310;SDS011;55157;51.036;17.058;2023-08-24T01:24:23;10.10;;;3.70;;
68310;SDS011;55157;51.036;17.058;2023-08-24T01:26:52;14.77;;;3.85;;
68310;SDS011;55157;51.036;17.058;2023-08-24T01:29:18;13.32;;;3.95;;
68310;SDS011;55157;51.036;17.058;2023-08-24T01:31:44;7.20;;;4.22;;
68310;SDS011;55157;51.036;17.058;2023-08-24T01:34:12;10.90;;;4.03;;
68310;SDS011;55157;51.036;17.058;2023-08-24T01:36:38;9.15;;;3.67;;
68310;SDS011;55157;51.036;17.058;2023-08-24T01:39:05;15.85;;;4.32;;
68310;SDS011;55157;51.036;17.058;2023-08-24T01:41:33;12.25;;;4.20;;
68310;SDS011;55157;51.036;17.058;2023-08-24T01:44:01;20.45;;;5.13;;
68310;SDS011;55157;51.036;17.058;2023-08-24T01:46:27;8.75;;;3.75;;
68310;SDS011;55157;51.036;17.058;2023-08-24T01:48:53;11.40;;;4.50;;
68310;SDS011;55157;51.036;17.058;2023-08-24T01:51:19;6.57;;;3.50;;
68310;SDS011;55157;51.036;17.058;2023-08-24T01:53:45;9.05;;;3.85;;
68310;SDS011;55157;51.036;17.058;2023-08-24T01:56:10;10.68;;;4.80;;
68310;SDS011;55157;51.036;17.058;2023-08-24T01:58:36;7.82;;;4.05;;
68310;SDS011;55157;51.036;17.058;2023-08-24T02:01:02;17.38;;;4.00;;
68310;SDS011;55157;51.036;17.058;2023-08-24T02:03:28;10.48;;;4.18;;
68310;SDS011;55157;51.036;17.058;2023-08-24T02:05:53;10.68;;;4.03;;
68310;SDS011;55157;51.036;17.058;2023-08-24T02:08:18;15.10;;;4.18;;
68310;SDS011;55157;51.036;17.058;2023-08-24T02:10:44;8.77;;;4.82;;
68310;SDS011;55157;51.036;17.058;2023-08-24T02:13:09;11.00;;;4.35;;
68310;SDS011;55157;51.036;17.058;2023-08-24T02:15:34;15.40;;;4.25;;
68310;SDS011;55157;51.036;17.058;2023-08-24T02:18:01;8.60;;;4.18;;
68310;SDS011;55157;51.036;17.058;2023-08-24T02:20:26;9.15;;;3.78;;
68310;SDS011;55157;51.036;17.058;2023-08-24T02:22:51;6.22;;;4.00;;
68310;SDS011;55157;51.036;17.058;2023-08-24T02:25:16;7.75;;;3.70;;
68310;SDS011;55157;51.036;17.058;2023-08-24T02:27:42;7.65;;;3.50;;
68310;SDS011;55157;51.036;17.058;2023-08-24T02:30:07;6.75;;;3.97;;
68310;SDS011;55157;51.036;17.058;2023-08-24T02:32:32;7.63;;;3.83;;
68310;SDS011;55157;51.036;17.058;2023-08-24T02:34:59;9.98;;;3.65;;
68310;SDS011;55157;51.036;17.058;2023-08-24T02:37:26;15.23;;;4.85;;
68310;SDS011;55157;51.036;17.058;2023-08-24T02:39:51;12.32;;;4.22;;
68310;SDS011;55157;51.036;17.058;2023-08-24T02:42:17;15.27;;;3.78;;
68310;SDS011;55157;51.036;17.058;2023-08-24T02:44:42;10.90;;;3.85;;
68310;SDS011;55157;51.036;17.058;2023-08-24T02:47:07;6.68;;;4.05;;
68310;SDS011;55157;51.036;17.058;2023-08-24T02:49:32;7.82;;;3.63;;
68310;SDS011;55157;51.036;17.058;2023-08-24T02:51:59;14.43;;;4.57;;
68310;SDS011;55157;51.036;17.058;2023-08-24T02:54:24;10.63;;;4.55;;
68310;SDS011;55157;51.036;17.058;2023-08-24T02:56:49;13.68;;;4.10;;
68310;SDS011;55157;51.036;17.058;2023-08-24T02:59:15;6.40;;;4.07;;
68310;SDS011;55157;51.036;17.058;2023-08-24T03:01:40;9.52;;;4.47;;
68310;SDS011;55157;51.036;17.058;2023-08-24T03:04:05;7.30;;;3.85;;
68310;SDS011;55157;51.036;17.058;2023-08-24T03:06:30;10.23;;;4.28;;
68310;SDS011;55157;51.036;17.058;2023-08-24T03:08:57;6.50;;;4.30;;
68310;SDS011;55157;51.036;17.058;2023-08-24T03:11:22;12.15;;;4.50;;
68310;SDS011;55157;51.036;17.058;2023-08-24T03:13:48;6.72;;;3.72;;
68310;SDS011;55157;51.036;17.058;2023-08-24T03:16:13;7.65;;;4.03;;
68310;SDS011;55157;51.036;17.058;2023-08-24T03:18:38;6.03;;;4.05;;
68310;SDS011;55157;51.036;17.058;2023-08-24T03:21:03;9.73;;;4.20;;
68310;SDS011;55157;51.036;17.058;2023-08-24T03:23:31;5.63;;;3.70;;
68310;SDS011;55157;51.036;17.058;2023-08-24T03:25:58;9.02;;;4.45;;
68310;SDS011;55157;51.036;17.058;2023-08-24T03:28:24;9.88;;;4.47;;
68310;SDS011;55157;51.036;17.058;2023-08-24T03:30:50;6.53;;;3.80;;
68310;SDS011;55157;51.036;17.058;2023-08-24T03:33:16;6.05;;;3.75;;
68310;SDS011;55157;51.036;17.058;2023-08-24T03:35:41;10.32;;;4.30;;
68310;SDS011;55157;51.036;17.058;2023-08-24T03:38:06;7.68;;;3.83;;
68310;SDS011;55157;51.036;17.058;2023-08-24T03:40:31;5.28;;;3.53;;
68310;SDS011;55157;51.036;17.058;2023-08-24T03:42:58;11.60;;;4.40;;
68310;SDS011;55157;51.036;17.058;2023-08-24T03:45:23;7.72;;;4.15;;
68310;SDS011;55157;51.036;17.058;2023-08-24T03:47:49;10.52;;;4.10;;
68310;SDS011;55157;51.036;17.058;2023-08-24T03:50:14;10.40;;;4.43;;
68310;SDS011;55157;51.036;17.058;2023-08-24T03:52:39;9.90;;;4.03;;
68310;SDS011;55157;51.036;17.058;2023-08-24T03:55:05;7.00;;;4.10;;
68310;SDS011;55157;51.036;17.058;2023-08-24T03:57:30;11.88;;;4.28;;
68310;SDS011;55157;51.036;17.058;2023-08-24T03:59:57;8.85;;;4.32;;
68310;SDS011;55157;51.036;17.058;2023-08-24T04:02:23;6.95;;;4.57;;
68310;SDS011;55157;51.036;17.058;2023-08-24T04:04:50;6.40;;;3.90;;
68310;SDS011;55157;51.036;17.058;2023-08-24T04:07:15;15.60;;;4.78;;
68310;SDS011;55157;51.036;17.058;2023-08-24T04:09:41;11.82;;;4.90;;
68310;SDS011;55157;51.036;17.058;2023-08-24T04:12:06;12.93;;;4.78;;
68310;SDS011;55157;51.036;17.058;2023-08-24T04:14:31;10.98;;;4.90;;
68310;SDS011;55157;51.036;17.058;2023-08-24T04:16:58;14.95;;;4.78;;
68310;SDS011;55157;51.036;17.058;2023-08-24T04:19:23;8.52;;;4.65;;
68310;SDS011;55157;51.036;17.058;2023-08-24T04:21:49;9.27;;;4.50;;
68310;SDS011;55157;51.036;17.058;2023-08-24T04:24:14;6.53;;;4.35;;
68310;SDS011;55157;51.036;17.058;2023-08-24T04:26:39;11.38;;;4.60;;
68310;SDS011;55157;51.036;17.058;2023-08-24T04:29:04;11.25;;;5.20;;
68310;SDS011;55157;51.036;17.058;2023-08-24T04:31:30;9.23;;;5.07;;
68310;SDS011;55157;51.036;17.058;2023-08-24T04:33:56;12.43;;;5.25;;
68310;SDS011;55157;51.036;17.058;2023-08-24T04:36:21;18.15;;;6.03;;
68310;SDS011;55157;51.036;17.058;2023-08-24T04:38:47;7.45;;;4.90;;
68310;SDS011;55157;51.036;17.058;2023-08-24T04:41:15;9.40;;;5.65;;
68310;SDS011;55157;51.036;17.058;2023-08-24T04:43:40;14.43;;;5.90;;
68310;SDS011;55157;51.036;17.058;2023-08-24T04:46:05;11.88;;;5.90;;
68310;SDS011;55157;51.036;17.058;2023-08-24T04:48:31;10.20;;;5.25;;
68310;SDS011;55157;51.036;17.058;2023-08-24T04:50:58;9.95;;;4.93;;
68310;SDS011;55157;51.036;17.058;2023-08-24T04:53:23;14.52;;;5.50;;
68310;SDS011;55157;51.036;17.058;2023-08-24T04:55:48;9.07;;;4.45;;
68310;SDS011;55157;51.036;17.058;2023-08-24T04:58:13;12.27;;;5.05;;
68310;SDS011;55157;51.036;17.058;2023-08-24T05:00:39;14.25;;;5.47;;
68310;SDS011;55157;51.036;17.058;2023-08-24T05:03:04;12.95;;;5.43;;
68310;SDS011;55157;51.036;17.058;2023-08-24T05:05:32;13.75;;;5.40;;
68310;SDS011;55157;51.036;17.058;2023-08-24T05:07:59;12.60;;;6.40;;
68310;SDS011;55157;51.036;17.058;2023-08-24T05:10:25;21.98;;;5.70;;
68310;SDS011;55157;51.036;17.058;2023-08-24T05:12:50;14.90;;;5.43;;
68310;SDS011;55157;51.036;17.058;2023-08-24T05:15:15;13.55;;;4.95;;
68310;SDS011;55157;51.036;17.058;2023-08-24T05:17:41;11.27;;;5.07;;
68310;SDS011;55157;51.036;17.058;2023-08-24T05:20:06;14.73;;;5.80;;
68310;SDS011;55157;51.036;17.058;2023-08-24T05:22:32;12.40;;;5.35;;
68310;SDS011;55157;51.036;17.058;2023-08-24T05:24:58;9.02;;;5.32;;
68310;SDS011;55157;51.036;17.058;2023-08-24T05:27:24;12.13;;;5.30;;
68310;SDS011;55157;51.036;17.058;2023-08-24T05:29:49;10.90;;;5.40;;
68310;SDS011;55157;51.036;17.058;2023-08-24T05:32:14;10.15;;;5.00;;
68310;SDS011;55157;51.036;17.058;2023-08-24T05:34:40;12.98;;;5.85;;
68310;SDS011;55157;51.036;17.058;2023-08-24T05:37:05;10.07;;;5.28;;
68310;SDS011;55157;51.036;17.058;2023-08-24T05:39:30;9.57;;;5.68;;
68310;SDS011;55157;51.036;17.058;2023-08-24T05:41:57;13.98;;;5.78;;
68310;SDS011;55157;51.036;17.058;2023-08-24T05:44:22;10.70;;;5.32;;
68310;SDS011;55157;51.036;17.058;2023-08-24T05:46:49;11.05;;;5.43;;
68310;SDS011;55157;51.036;17.058;2023-08-24T05:49:14;8.55;;;5.05;;
68310;SDS011;55157;51.036;17.058;2023-08-24T05:51:40;16.33;;;4.88;;
68310;SDS011;55157;51.036;17.058;2023-08-24T05:54:05;13.43;;;5.45;;
68310;SDS011;55157;51.036;17.058;2023-08-24T05:56:30;15.60;;;6.05;;
68310;SDS011;55157;51.036;17.058;2023-08-24T05:58:58;8.13;;;4.90;;
68310;SDS011;55157;51.036;17.058;2023-08-24T06:01:23;11.85;;;5.10;;
68310;SDS011;55157;51.036;17.058;2023-08-24T06:03:48;13.32;;;4.55;;
68310;SDS011;55157;51.036;17.058;2023-08-24T06:06:14;10.95;;;5.38;;
68310;SDS011;55157;51.036;17.058;2023-08-24T06:08:39;12.98;;;4.78;;
68310;SDS011;55157;51.036;17.058;2023-08-24T06:11:04;8.20;;;4.22;;
68310;SDS011;55157;51.036;17.058;2023-08-24T06:13:29;13.55;;;4.65;;
68310;SDS011;55157;51.036;17.058;2023-08-24T06:15:56;12.77;;;4.03;;
68310;SDS011;55157;51.036;17.058;2023-08-24T06:18:21;10.73;;;4.85;;
68310;SDS011;55157;51.036;17.058;2023-08-24T06:20:47;10.75;;;4.00;;
68310;SDS011;55157;51.036;17.058;2023-08-24T06:23:12;9.20;;;4.35;;
68310;SDS011;55157;51.036;17.058;2023-08-24T06:25:37;12.70;;;4.43;;
68310;SDS011;55157;51.036;17.058;2023-08-24T06:28:03;8.13;;;3.92;;
68310;SDS011;55157;51.036;17.058;2023-08-24T06:30:28;8.05;;;4.38;;
68310;SDS011;55157;51.036;17.058;2023-08-24T06:32:55;12.52;;;4.18;;
68310;SDS011;55157;51.036;17.058;2023-08-24T06:35:20;13.98;;;3.83;;
68310;SDS011;55157;51.036;17.058;2023-08-24T06:37:45;9.10;;;3.97;;
68310;SDS011;55157;51.036;17.058;2023-08-24T06:40:11;15.02;;;3.88;;
68310;SDS011;55157;51.036;17.058;2023-08-24T06:42:36;6.82;;;3.35;;
68310;SDS011;55157;51.036;17.058;2023-08-24T06:45:01;12.82;;;3.78;;
68310;SDS011;55157;51.036;17.058;2023-08-24T06:47:27;7.10;;;3.65;;
68310;SDS011;55157;51.036;17.058;2023-08-24T06:49:54;6.07;;;3.50;;
68310;SDS011;55157;51.036;17.058;2023-08-24T06:52:19;9.77;;;3.28;;
68310;SDS011;55157;51.036;17.058;2023-08-24T06:54:44;7.07;;;3.13;;
68310;SDS011;55157;51.036;17.058;2023-08-24T06:57:09;12.10;;;4.45;;
68310;SDS011;55157;51.036;17.058;2023-08-24T06:59:35;5.80;;;3.08;;
68310;SDS011;55157;51.036;17.058;2023-08-24T07:02:00;6.30;;;3.08;;
68310;SDS011;55157;51.036;17.058;2023-08-24T07:04:25;6.10;;;2.55;;
68310;SDS011;55157;51.036;17.058;2023-08-24T07:06:52;8.23;;;3.25;;
68310;SDS011;55157;51.036;17.058;2023-08-24T07:09:18;10.52;;;3.13;;
68310;SDS011;55157;51.036;17.058;2023-08-24T07:11:43;7.10;;;2.47;;
68310;SDS011;55157;51.036;17.058;2023-08-24T07:14:08;6.07;;;2.90;;
68310;SDS011;55157;51.036;17.058;2023-08-24T07:16:34;6.97;;;2.80;;
68310;SDS011;55157;51.036;17.058;2023-08-24T07:18:59;11.53;;;2.73;;
68310;SDS011;55157;51.036;17.058;2023-08-24T07:21:24;9.65;;;3.28;;
68310;SDS011;55157;51.036;17.058;2023-08-24T07:23:51;10.10;;;2.77;;
68310;SDS011;55157;51.036;17.058;2023-08-24T07:26:16;6.18;;;2.83;;
68310;SDS011;55157;51.036;17.058;2023-08-24T07:28:41;9.23;;;2.60;;
68310;SDS011;55157;51.036;17.058;2023-08-24T07:31:07;9.88;;;2.50;;
68310;SDS011;55157;51.036;17.058;2023-08-24T07:33:32;5.25;;;2.33;;
68310;SDS011;55157;51.036;17.058;2023-08-24T07:35:57;13.50;;;2.90;;
68310;SDS011;55157;51.036;17.058;2023-08-24T07:38:23;4.20;;;2.45;;
68310;SDS011;55157;51.036;17.058;2023-08-24T07:40:49;8.10;;;2.57;;
68310;SDS011;55157;51.036;17.058;2023-08-24T07:43:14;7.47;;;2.35;;
68310;SDS011;55157;51.036;17.058;2023-08-24T07:45:40;5.73;;;2.87;;
68310;SDS011;55157;51.036;17.058;2023-08-24T07:48:05;9.68;;;2.75;;
68310;SDS011;55157;51.036;17.058;2023-08-24T07:50:30;11.15;;;2.70;;
68310;SDS011;55157;51.036;17.058;2023-08-24T07:52:57;6.53;;;2.17;;
68310;SDS011;55157;51.036;17.058;2023-08-24T07:55:22;7.32;;;3.03;;
68310;SDS011;55157;51.036;17.058;2023-08-24T07:57:49;6.07;;;2.38;;
68310;SDS011;55157;51.036;17.058;2023-08-24T08:00:15;7.55;;;1.80;;
68310;SDS011;55157;51.036;17.058;2023-08-24T08:02:40;7.07;;;2.20;;
68310;SDS011;55157;51.036;17.058;2023-08-24T08:05:06;10.20;;;2.47;;
68310;SDS011;55157;51.036;17.058;2023-08-24T08:07:31;5.72;;;2.58;;
68310;SDS011;55157;51.036;17.058;2023-08-24T08:09:56;9.93;;;1.80;;
68310;SDS011;55157;51.036;17.058;2023-08-24T08:12:21;14.00;;;1.97;;
68310;SDS011;55157;51.036;17.058;2023-08-24T08:14:48;10.83;;;2.03;;
68310;SDS011;55157;51.036;17.058;2023-08-24T08:17:13;4.78;;;1.60;;
68310;SDS011;55157;51.036;17.058;2023-08-24T08:19:39;4.38;;;1.80;;
68310;SDS011;55157;51.036;17.058;2023-08-24T08:22:04;9.30;;;2.03;;
68310;SDS011;55157;51.036;17.058;2023-08-24T08:24:29;6.80;;;1.90;;
68310;SDS011;55157;51.036;17.058;2023-08-24T08:26:54;7.70;;;2.30;;
68310;SDS011;55157;51.036;17.058;2023-08-24T08:29:20;4.03;;;1.73;;
68310;SDS011;55157;51.036;17.058;2023-08-24T08:31:50;9.73;;;2.03;;
68310;SDS011;55157;51.036;17.058;2023-08-24T08:34:15;8.98;;;2.38;;
68310;SDS011;55157;51.036;17.058;2023-08-24T08:36:40;12.93;;;2.17;;
68310;SDS011;55157;51.036;17.058;2023-08-24T08:39:06;6.63;;;2.38;;
68310;SDS011;55157;51.036;17.058;2023-08-24T08:41:33;10.43;;;2.00;;
68310;SDS011;55157;51.036;17.058;2023-08-24T08:43:58;6.50;;;2.03;;
68310;SDS011;55157;51.036;17.058;2023-08-24T08:46:24;11.30;;;1.83;;
68310;SDS011;55157;51.036;17.058;2023-08-24T08:48:55;6.32;;;1.83;;
68310;SDS011;55157;51.036;17.058;2023-08-24T08:51:20;8.13;;;2.17;;
68310;SDS011;55157;51.036;17.058;2023-08-24T08:53:45;6.10;;;1.73;;
68310;SDS011;55157;51.036;17.058;2023-08-24T08:56:10;6.30;;;2.00;;
68310;SDS011;55157;51.036;17.058;2023-08-24T08:58:39;8.07;;;1.98;;
68310;SDS011;55157;51.036;17.058;2023-08-24T09:01:04;11.45;;;1.90;;
68310;SDS011;55157;51.036;17.058;2023-08-24T09:03:30;3.83;;;1.60;;
68310;SDS011;55157;51.036;17.058;2023-08-24T09:05:57;7.38;;;1.98;;
68310;SDS011;55157;51.036;17.058;2023-08-24T09:08:22;6.68;;;1.65;;
68310;SDS011;55157;51.036;17.058;2023-08-24T09:10:48;10.15;;;1.73;;
68310;SDS011;55157;51.036;17.058;2023-08-24T09:13:13;5.93;;;1.70;;
68310;SDS011;55157;51.036;17.058;2023-08-24T09:15:45;6.77;;;1.63;;
68310;SDS011;55157;51.036;17.058;2023-08-24T09:18:10;4.65;;;1.98;;
68310;SDS011;55157;51.036;17.058;2023-08-24T09:20:35;4.20;;;1.90;;
68310;SDS011;55157;51.036;17.058;2023-08-24T09:23:03;8.80;;;2.05;;
68310;SDS011;55157;51.036;17.058;2023-08-24T09:25:28;5.95;;;1.83;;
68310;SDS011;55157;51.036;17.058;2023-08-24T09:27:57;5.68;;;2.13;;
68310;SDS011;55157;51.036;17.058;2023-08-24T09:30:22;4.22;;;1.77;;
68310;SDS011;55157;51.036;17.058;2023-08-24T09:32:47;5.90;;;2.43;;
68310;SDS011;55157;51.036;17.058;2023-08-24T09:35:13;6.03;;;1.40;;
68310;SDS011;55157;51.036;17.058;2023-08-24T09:37:41;3.75;;;1.50;;
68310;SDS011;55157;51.036;17.058;2023-08-24T09:40:08;3.00;;;1.50;;
68310;SDS011;55157;51.036;17.058;2023-08-24T09:42:43;9.52;;;1.83;;
68310;SDS011;55157;51.036;17.058;2023-08-24T09:45:09;9.45;;;1.58;;
68310;SDS011;55157;51.036;17.058;2023-08-24T09:47:36;2.30;;;1.35;;
68310;SDS011;55157;51.036;17.058;2023-08-24T09:50:01;6.70;;;1.70;;
68310;SDS011;55157;51.036;17.058;2023-08-24T09:52:26;4.40;;;1.60;;
68310;SDS011;55157;51.036;17.058;2023-08-24T09:54:54;6.43;;;1.60;;
68310;SDS011;55157;51.036;17.058;2023-08-24T09:57:21;8.15;;;1.73;;
68310;SDS011;55157;51.036;17.058;2023-08-24T09:59:46;7.18;;;1.90;;
68310;SDS011;55157;51.036;17.058;2023-08-24T10:02:15;8.70;;;2.00;;
68310;SDS011;55157;51.036;17.058;2023-08-24T10:04:40;3.92;;;1.65;;
68310;SDS011;55157;51.036;17.058;2023-08-24T10:07:07;4.13;;;1.67;;
68310;SDS011;55157;51.036;17.058;2023-08-24T10:09:35;5.25;;;1.52;;
68310;SDS011;55157;51.036;17.058;2023-08-24T10:12:04;9.75;;;1.60;;
68310;SDS011;55157;51.036;17.058;2023-08-24T10:14:32;14.05;;;1.90;;
68310;SDS011;55157;51.036;17.058;2023-08-24T10:17:00;9.15;;;2.00;;
68310;SDS011;55157;51.036;17.058;2023-08-24T10:19:26;5.90;;;1.83;;
68310;SDS011;55157;51.036;17.058;2023-08-24T10:21:53;5.38;;;1.83;;
68310;SDS011;55157;51.036;17.058;2023-08-24T10:24:18;6.65;;;1.75;;
68310;SDS011;55157;51.036;17.058;2023-08-24T10:26:44;4.25;;;1.67;;
68310;SDS011;55157;51.036;17.058;2023-08-24T10:29:09;12.57;;;1.70;;
68310;SDS011;55157;51.036;17.058;2023-08-24T10:31:39;6.85;;;1.60;;
68310;SDS011;55157;51.036;17.058;2023-08-24T10:34:05;6.47;;;2.20;;
68310;SDS011;55157;51.036;17.058;2023-08-24T10:36:31;4.10;;;1.80;;
68310;SDS011;55157;51.036;17.058;2023-08-24T10:39:00;4.38;;;1.42;;
68310;SDS011;55157;51.036;17.058;2023-08-24T10:41:27;6.50;;;1.50;;
68310;SDS011;55157;51.036;17.058;2023-08-24T10:43:52;9.00;;;2.23;;
68310;SDS011;55157;51.036;17.058;2023-08-24T10:46:29;3.38;;;1.58;;
68310;SDS011;55157;51.036;17.058;2023-08-24T10:49:03;4.82;;;1.55;;
68310;SDS011;55157;51.036;17.058;2023-08-24T10:51:28;3.65;;;1.60;;
68310;SDS011;55157;51.036;17.058;2023-08-24T10:53:55;7.37;;;1.37;;
68310;SDS011;55157;51.036;17.058;2023-08-24T10:56:20;4.38;;;1.60;;
68310;SDS011;55157;51.036;17.058;2023-08-24T10:58:46;12.15;;;2.22;;
68310;SDS011;55157;51.036;17.058;2023-08-24T11:01:14;3.05;;;1.70;;
68310;SDS011;55157;51.036;17.058;2023-08-24T11:03:39;4.88;;;1.70;;
68310;SDS011;55157;51.036;17.058;2023-08-24T11:06:18;5.17;;;1.40;;
68310;SDS011;55157;51.036;17.058;2023-08-24T11:08:43;5.32;;;1.73;;
68310;SDS011;55157;51.036;17.058;2023-08-24T11:11:17;4.22;;;1.70;;
68310;SDS011;55157;51.036;17.058;2023-08-24T11:13:50;6.50;;;1.73;;
68310;SDS011;55157;51.036;17.058;2023-08-24T11:16:38;6.80;;;1.40;;
68310;SDS011;55157;51.036;17.058;2023-08-24T11:19:04;4.97;;;1.88;;
68310;SDS011;55157;51.036;17.058;2023-08-24T11:21:31;4.75;;;1.48;;
68310;SDS011;55157;51.036;17.058;2023-08-24T11:23:58;3.78;;;1.58;;
68310;SDS011;55157;51.036;17.058;2023-08-24T11:26:24;3.22;;;1.20;;
68310;SDS011;55157;51.036;17.058;2023-08-24T11:28:52;3.60;;;1.20;;
68310;SDS011;55157;51.036;17.058;2023-08-24T11:31:18;3.05;;;1.50;;
68310;SDS011;55157;51.036;17.058;2023-08-24T11:33:43;7.90;;;1.87;;
68310;SDS011;55157;51.036;17.058;2023-08-24T11:36:08;7.03;;;1.40;;
68310;SDS011;55157;51.036;17.058;2023-08-24T11:38:38;2.50;;;1.33;;
68310;SDS011;55157;51.036;17.058;2023-08-24T11:41:09;3.20;;;1.33;;
68310;SDS011;55157;51.036;17.058;2023-08-24T11:43:35;3.65;;;1.30;;
68310;SDS011;55157;51.036;17.058;2023-08-24T11:46:00;3.90;;;1.40;;
68310;SDS011;55157;51.036;17.058;2023-08-24T11:48:25;5.07;;;1.40;;
68310;SDS011;55157;51.036;17.058;2023-08-24T11:50:51;6.10;;;1.37;;
68310;SDS011;55157;51.036;17.058;2023-08-24T11:53:16;9.68;;;1.58;;
68310;SDS011;55157;51.036;17.058;2023-08-24T11:55:43;3.55;;;1.40;;
68310;SDS011;55157;51.036;17.058;2023-08-24T11:58:13;3.85;;;1.33;;
68310;SDS011;55157;51.036;17.058;2023-08-24T12:00:38;3.47;;;1.20;;
68310;SDS011;55157;51.036;17.058;2023-08-24T12:03:04;6.93;;;1.60;;
68310;SDS011;55157;51.036;17.058;2023-08-24T12:05:29;3.78;;;1.10;;
68310;SDS011;55157;51.036;17.058;2023-08-24T12:07:54;3.40;;;1.37;;
68310;SDS011;55157;51.036;17.058;2023-08-24T12:10:19;3.00;;;1.47;;
68310;SDS011;55157;51.036;17.058;2023-08-24T12:12:46;4.77;;;1.30;;
68310;SDS011;55157;51.036;17.058;2023-08-24T12:15:15;11.45;;;1.40;;
68310;SDS011;55157;51.036;17.058;2023-08-24T12:17:43;4.93;;;1.73;;
68310;SDS011;55157;51.036;17.058;2023-08-24T12:20:16;4.47;;;1.75;;
68310;SDS011;55157;51.036;17.058;2023-08-24T12:22:41;2.42;;;1.30;;
68310;SDS011;55157;51.036;17.058;2023-08-24T12:25:07;5.70;;;1.00;;
68310;SDS011;55157;51.036;17.058;2023-08-24T12:27:32;10.02;;;1.50;;
68310;SDS011;55157;51.036;17.058;2023-08-24T12:30:01;5.30;;;1.50;;
68310;SDS011;55157;51.036;17.058;2023-08-24T12:32:29;7.88;;;1.50;;
68310;SDS011;55157;51.036;17.058;2023-08-24T12:35:06;12.20;;;1.42;;
68310;SDS011;55157;51.036;17.058;2023-08-24T12:37:32;6.00;;;1.80;;
68310;SDS011;55157;51.036;17.058;2023-08-24T12:39:57;3.60;;;1.73;;
68310;SDS011;55157;51.036;17.058;2023-08-24T12:42:22;7.47;;;1.33;;
68310;SDS011;55157;51.036;17.058;2023-08-24T12:44:47;6.17;;;1.60;;
68310;SDS011;55157;51.036;17.058;2023-08-24T12:47:14;2.23;;;1.43;;
68310;SDS011;55157;51.036;17.058;2023-08-24T12:49:39;3.15;;;1.40;;
68310;SDS011;55157;51.036;17.058;2023-08-24T12:52:05;3.13;;;1.53;;
68310;SDS011;55157;51.036;17.058;2023-08-24T12:54:30;7.00;;;1.35;;
68310;SDS011;55157;51.036;17.058;2023-08-24T12:56:55;6.17;;;1.60;;
68310;SDS011;55157;51.036;17.058;2023-08-24T12:59:20;8.53;;;1.43;;
68310;SDS011;55157;51.036;17.058;2023-08-24T13:01:46;14.32;;;1.50;;
68310;SDS011;55157;51.036;17.058;2023-08-24T13:04:13;5.07;;;1.67;;
68310;SDS011;55157;51.036;17.058;2023-08-24T13:06:38;13.95;;;2.10;;
68310;SDS011;55157;51.036;17.058;2023-08-24T13:09:03;12.80;;;2.43;;
68310;SDS011;55157;51.036;17.058;2023-08-24T13:11:28;9.30;;;1.70;;
68310;SDS011;55157;51.036;17.058;2023-08-24T13:13:56;4.40;;;1.58;;
68310;SDS011;55157;51.036;17.058;2023-08-24T13:16:21;5.30;;;1.73;;
68310;SDS011;55157;51.036;17.058;2023-08-24T13:18:46;4.30;;;1.93;;
68310;SDS011;55157;51.036;17.058;2023-08-24T13:21:13;2.70;;;1.40;;
68310;SDS011;55157;51.036;17.058;2023-08-24T13:23:38;5.60;;;1.67;;
68310;SDS011;55157;51.036;17.058;2023-08-24T13:26:03;4.93;;;1.20;;
68310;SDS011;55157;51.036;17.058;2023-08-24T13:28:29;8.47;;;1.80;;
68310;SDS011;55157;51.036;17.058;2023-08-24T13:30:54;4.73;;;1.93;;
68310;SDS011;55157;51.036;17.058;2023-08-24T13:33:19;9.23;;;1.70;;
68310;SDS011;55157;51.036;17.058;2023-08-24T13:35:45;5.03;;;2.07;;
68310;SDS011;55157;51.036;17.058;2023-08-24T13:38:13;16.93;;;2.13;;
68310;SDS011;55157;51.036;17.058;2023-08-24T13:40:38;5.40;;;2.03;;
68310;SDS011;55157;51.036;17.058;2023-08-24T13:43:03;3.93;;;1.63;;
68310;SDS011;55157;51.036;17.058;2023-08-24T13:45:28;11.90;;;2.47;;
68310;SDS011;55157;51.036;17.058;2023-08-24T13:47:54;2.90;;;1.60;;
68310;SDS011;55157;51.036;17.058;2023-08-24T13:50:19;6.83;;;1.87;;
68310;SDS011;55157;51.036;17.058;2023-08-24T13:52:44;7.00;;;1.57;;
68310;SDS011;55157;51.036;17.058;2023-08-24T13:55:11;13.90;;;2.00;;
68310;SDS011;55157;51.036;17.058;2023-08-24T13:57:36;5.80;;;1.55;;
68310;SDS011;55157;51.036;17.058;2023-08-24T14:00:01;5.83;;;1.23;;
68310;SDS011;55157;51.036;17.058;2023-08-24T14:02:27;10.63;;;1.55;;
68310;SDS011;55157;51.036;17.058;2023-08-24T14:04:52;2.50;;;1.53;;
68310;SDS011;55157;51.036;17.058;2023-08-24T14:07:17;5.80;;;1.67;;
68310;SDS011;55157;51.036;17.058;2023-08-24T14:09:42;9.47;;;2.10;;
68310;SDS011;55157;51.036;17.058;2023-08-24T14:12:09;6.47;;;1.80;;
68310;SDS011;55157;51.036;17.058;2023-08-24T14:14:34;3.20;;;1.88;;
68310;SDS011;55157;51.036;17.058;2023-08-24T14:17:00;7.90;;;1.83;;
68310;SDS011;55157;51.036;17.058;2023-08-24T14:19:25;8.60;;;2.10;;
68310;SDS011;55157;51.036;17.058;2023-08-24T14:21:50;6.95;;;1.50;;
68310;SDS011;55157;51.036;17.058;2023-08-24T14:24:15;4.47;;;1.60;;